Time;durP1;ratioP1;P1;durP2;ratioP2;P2;SDS_P1;SDS_P2;PMS_P1;PMS_P2;Temp;Humidity;BMP_temperature;BMP_pressure;BME280_temperature;BME280_humidity;BME280_pressure;Samples;Min_cycle;Max_cycle;Signal;HPM_P1;HPM_P2
2023/02/23 00:00:19;;;;;;;0.68;0.68;;;6.20;99.90;;;;;;4416041;32;20074;-63
2023/02/23 00:02:48;;;;;;;0.75;0.75;;;6.30;99.90;;;;;;4435471;32;20092;-62
2023/02/23 00:05:14;;;;;;;11.48;3.28;;;6.40;99.90;;;;;;4436118;32;20121;-62
2023/02/23 00:07:43;;;;;;;2.62;2.17;;;6.40;99.90;;;;;;4417272;32;20532;-62
2023/02/23 00:10:11;;;;;;;5.70;1.62;;;6.30;99.90;;;;;;4431427;32;20456;-64
2023/02/23 00:12:37;;;;;;;2.25;1.37;;;6.20;99.90;;;;;;4429246;32;20070;-62
2023/02/23 00:15:03;;;;;;;5.53;2.35;;;6.20;99.90;;;;;;4417526;32;20116;-62
2023/02/23 00:17:30;;;;;;;0.65;0.65;;;6.10;99.90;;;;;;4433329;32;20069;-62
2023/02/23 00:19:56;;;;;;;0.80;0.80;;;6.10;99.90;;;;;;4435579;32;20091;-62
2023/02/23 00:22:24;;;;;;;4.35;2.03;;;6.10;99.90;;;;;;4435076;32;20456;-63
2023/02/23 00:24:49;;;;;;;7.53;2.12;;;6.10;99.90;;;;;;4418265;32;20105;-63
2023/02/23 00:27:19;;;;;;;7.32;1.65;;;6.00;99.90;;;;;;4433399;32;20100;-62
2023/02/23 00:29:48;;;;;;;0.93;0.93;;;6.00;99.90;;;;;;4415087;32;20069;-62
2023/02/23 00:32:18;;;;;;;1.27;1.15;;;6.00;99.90;;;;;;4414013;32;20089;-62
2023/02/23 00:34:48;;;;;;;0.80;0.80;;;6.10;99.90;;;;;;4431740;32;20143;-62
2023/02/23 00:37:14;;;;;;;1.23;1.17;;;6.10;99.90;;;;;;4431916;32;20093;-63
2023/02/23 00:39:40;;;;;;;12.82;1.58;;;6.10;99.90;;;;;;4408649;32;20061;-62
2023/02/23 00:42:06;;;;;;;4.15;1.48;;;6.10;99.90;;;;;;4434430;32;20085;-63
2023/02/23 00:44:32;;;;;;;0.73;0.73;;;6.10;99.90;;;;;;4430644;32;20076;-63
2023/02/23 00:46:58;;;;;;;6.35;2.15;;;6.10;99.90;;;;;;4430671;32;20062;-64
2023/02/23 00:49:24;;;;;;;0.80;0.80;;;6.10;99.90;;;;;;4417860;32;20077;-62
2023/02/23 00:51:50;;;;;;;1.00;0.95;;;6.10;99.90;;;;;;4436316;32;20536;-64
2023/02/23 00:54:17;;;;;;;38.50;1.52;;;6.10;99.90;;;;;;4431130;32;20080;-62
2023/02/23 00:56:43;;;;;;;2.28;0.98;;;6.00;99.90;;;;;;4417680;32;20314;-62
2023/02/23 00:59:09;;;;;;;2.15;1.62;;;6.00;99.90;;;;;;4417398;32;20151;-63
2023/02/23 01:01:36;;;;;;;1.08;1.05;;;6.10;99.90;;;;;;4414663;32;20608;-62
2023/02/23 01:04:02;;;;;;;3.45;2.97;;;6.00;99.90;;;;;;4430301;32;20069;-62
2023/02/23 01:06:27;;;;;;;2.25;2.05;;;6.00;99.90;;;;;;4414900;32;20081;-62
2023/02/23 01:08:55;;;;;;;2.20;1.92;;;6.00;99.90;;;;;;4430622;32;20085;-63
2023/02/23 01:11:26;;;;;;;1.58;1.33;;;5.90;99.90;;;;;;4413266;32;20088;-63
2023/02/23 01:13:54;;;;;;;1.40;1.08;;;6.00;99.90;;;;;;4429783;32;20373;-63
2023/02/23 01:16:22;;;;;;;1.15;1.08;;;6.00;99.90;;;;;;4415190;32;20080;-63
2023/02/23 01:18:47;;;;;;;3.30;1.20;;;5.90;99.90;;;;;;4417786;32;20099;-62
2023/02/23 01:21:31;;;;;;;3.10;2.00;;;5.90;99.90;;;;;;4430567;32;20170;-63
2023/02/23 01:23:57;;;;;;;7.78;2.83;;;5.90;99.90;;;;;;4407076;32;20089;-62
2023/02/23 01:26:25;;;;;;;3.03;1.75;;;5.90;99.90;;;;;;4416338;32;20415;-62
2023/02/23 01:28:54;;;;;;;1.73;1.55;;;5.90;99.90;;;;;;4404287;32;20082;-64
2023/02/23 01:31:21;;;;;;;2.05;1.67;;;5.90;99.90;;;;;;4434638;32;20129;-64
2023/02/23 01:33:47;;;;;;;2.72;1.77;;;5.90;99.90;;;;;;4406986;32;20081;-63
2023/02/23 01:36:12;;;;;;;4.40;1.98;;;5.80;99.90;;;;;;4415079;32;21350;-64
2023/02/23 01:38:39;;;;;;;5.07;2.08;;;5.90;99.90;;;;;;4417469;32;20073;-64
2023/02/23 01:41:05;;;;;;;1.25;1.02;;;5.90;99.90;;;;;;4411950;32;20826;-63
2023/02/23 01:43:32;;;;;;;5.25;1.00;;;5.80;99.90;;;;;;4430051;32;20105;-65
2023/02/23 01:45:57;;;;;;;3.05;1.48;;;5.90;99.90;;;;;;4408466;32;20074;-63
2023/02/23 01:48:27;;;;;;;4.03;2.20;;;5.80;99.90;;;;;;4429384;32;20073;-65
2023/02/23 01:51:02;;;;;;;1.08;1.02;;;5.90;99.90;;;;;;4407041;32;20833;-63
2023/02/23 01:53:32;;;;;;;6.55;2.33;;;5.80;99.90;;;;;;4428063;32;20086;-63
2023/02/23 01:56:02;;;;;;;24.80;2.47;;;5.70;99.90;;;;;;4416713;32;20096;-64
2023/02/23 01:58:29;;;;;;;3.40;1.40;;;5.70;99.90;;;;;;4430002;32;20092;-64
2023/02/23 02:00:57;;;;;;;12.60;3.37;;;5.70;99.90;;;;;;4430126;32;20111;-63
2023/02/23 02:03:31;;;;;;;1.30;1.10;;;5.70;99.90;;;;;;4415734;32;20054;-63
2023/02/23 02:06:00;;;;;;;6.05;2.50;;;5.70;99.90;;;;;;4430957;32;20592;-63
2023/02/23 02:08:28;;;;;;;1.73;1.58;;;5.70;99.90;;;;;;4408637;32;20100;-63
2023/02/23 02:10:55;;;;;;;1.65;1.48;;;5.70;99.90;;;;;;4427196;32;20069;-62
2023/02/23 02:13:26;;;;;;;1.00;0.93;;;5.70;99.90;;;;;;4433054;32;20525;-64
2023/02/23 02:16:31;;;;;;;4.05;1.83;;;5.60;99.90;;;;;;4416751;32;20151;-62
2023/02/23 02:19:26;;;;;;;4.82;2.65;;;5.70;99.90;;;;;;4411172;32;20787;-62
2023/02/23 02:22:22;;;;;;;3.47;1.70;;;5.60;99.90;;;;;;4411991;32;20080;-62
2023/02/23 02:25:18;;;;;;;3.78;1.50;;;5.60;99.90;;;;;;4415578;32;20517;-63
2023/02/23 02:28:11;;;;;;;1.00;1.00;;;5.50;99.90;;;;;;4417326;32;20141;-63
2023/02/23 02:30:48;;;;;;;0.62;0.62;;;5.60;99.90;;;;;;4417817;32;20932;-63
2023/02/23 02:33:44;;;;;;;18.67;1.15;;;5.60;99.90;;;;;;4428382;32;20204;-64
2023/02/23 02:36:40;;;;;;;4.15;2.30;;;5.50;99.90;;;;;;4408361;32;20147;-63
2023/02/23 02:39:22;;;;;;;20.27;2.15;;;5.50;99.90;;;;;;4417779;32;21154;-63
2023/02/23 02:41:59;;;;;;;2.62;2.03;;;5.70;99.90;;;;;;4426970;32;20142;-63
2023/02/23 02:45:06;;;;;;;1.12;1.10;;;5.60;99.90;;;;;;4430056;32;20089;-64
2023/02/23 02:47:39;;;;;;;1.05;0.93;;;5.60;99.90;;;;;;4415029;32;20141;-63
2023/02/23 02:50:12;;;;;;;1.67;1.08;;;5.70;99.90;;;;;;4435552;32;20138;-62
2023/02/23 02:52:47;;;;;;;10.13;3.12;;;5.60;99.90;;;;;;4430194;32;21592;-63
2023/02/23 02:55:22;;;;;;;7.95;3.15;;;5.50;99.90;;;;;;4420229;32;20132;-63
2023/02/23 02:57:50;;;;;;;2.12;0.98;;;5.50;99.90;;;;;;4433433;32;20146;-63
2023/02/23 04:17:55;;;;;;;4.32;2.83;;;4.90;99.90;;;;;;4431222;32;20065;-63
2023/02/23 04:20:22;;;;;;;1.45;1.35;;;4.90;99.90;;;;;;4436262;32;20133;-62
2023/02/23 04:22:47;;;;;;;3.70;1.33;;;4.90;99.90;;;;;;4415199;32;20085;-62
2023/02/23 04:25:14;;;;;;;1.27;1.20;;;4.90;99.90;;;;;;4434175;32;20057;-62
2023/02/23 04:27:40;;;;;;;3.17;2.08;;;5.00;99.90;;;;;;4428475;32;20437;-64
2023/02/23 04:30:06;;;;;;;14.43;1.65;;;4.90;99.90;;;;;;4419393;32;20098;-62
2023/02/23 04:32:31;;;;;;;5.78;2.00;;;5.00;99.90;;;;;;4431882;32;20177;-62
2023/02/23 04:34:57;;;;;;;2.00;1.83;;;4.90;99.90;;;;;;4413553;32;21011;-62
2023/02/23 04:37:22;;;;;;;1.37;1.27;;;4.80;99.90;;;;;;4433616;32;20556;-63
2023/02/23 04:39:49;;;;;;;2.67;1.30;;;4.80;99.90;;;;;;4433597;32;20101;-63
2023/02/23 04:42:16;;;;;;;3.05;1.73;;;4.80;99.90;;;;;;4431353;32;20140;-62
2023/02/23 04:44:41;;;;;;;1.77;1.67;;;4.80;99.90;;;;;;4408589;32;20465;-62
2023/02/23 04:47:07;;;;;;;26.02;2.03;;;4.80;99.90;;;;;;4430323;32;20146;-63
2023/02/23 04:49:32;;;;;;;2.45;1.87;;;4.80;99.90;;;;;;4433253;32;20095;-63
2023/02/23 04:51:58;;;;;;;0.95;0.90;;;4.80;99.90;;;;;;4419771;32;20105;-62
2023/02/23 04:54:24;;;;;;;3.67;2.85;;;4.80;99.90;;;;;;4433145;32;20093;-64
2023/02/23 04:56:49;;;;;;;2.17;1.92;;;4.80;99.90;;;;;;4418016;32;20057;-62
2023/02/23 04:59:15;;;;;;;18.40;2.80;;;4.80;99.90;;;;;;4431594;32;20060;-63
2023/02/23 05:01:40;;;;;;;0.70;0.70;;;4.80;99.90;;;;;;4432512;32;20575;-63
2023/02/23 05:04:06;;;;;;;3.20;1.40;;;4.70;99.90;;;;;;4433332;32;20084;-64
2023/02/23 05:06:31;;;;;;;7.62;3.10;;;4.80;99.90;;;;;;4433182;32;20583;-62
2023/02/23 05:08:57;;;;;;;3.22;1.37;;;4.70;99.90;;;;;;4431592;32;20097;-62
2023/02/23 05:11:23;;;;;;;1.40;1.30;;;4.70;99.90;;;;;;4422427;32;20417;-63
2023/02/23 05:13:49;;;;;;;3.95;1.85;;;4.70;99.90;;;;;;4432974;32;20065;-64
2023/02/23 05:16:15;;;;;;;0.95;0.95;;;4.70;99.90;;;;;;4430520;32;20592;-62
2023/02/23 05:18:41;;;;;;;0.93;0.93;;;4.60;99.90;;;;;;4434684;32;20065;-62
2023/02/23 05:21:07;;;;;;;3.62;2.58;;;4.60;99.90;;;;;;4426749;32;20132;-64
2023/02/23 05:23:34;;;;;;;1.20;1.10;;;4.60;99.90;;;;;;4429390;32;20061;-63
2023/02/23 05:26:03;;;;;;;1.23;1.12;;;4.60;99.90;;;;;;4434913;32;20140;-62
2023/02/23 05:28:29;;;;;;;3.40;1.77;;;4.60;99.90;;;;;;4404715;32;20586;-64
2023/02/23 05:30:54;;;;;;;5.25;3.45;;;4.60;99.90;;;;;;4429427;32;20081;-63
2023/02/23 05:33:20;;;;;;;6.55;2.72;;;4.60;99.90;;;;;;4429435;32;20525;-62
2023/02/23 05:35:46;;;;;;;2.05;1.70;;;4.60;99.90;;;;;;4434360;32;20135;-63
2023/02/23 05:38:12;;;;;;;1.20;1.17;;;4.60;99.90;;;;;;4432893;32;20167;-62
2023/02/23 05:40:38;;;;;;;0.70;0.70;;;4.60;99.90;;;;;;4433517;32;20131;-62
2023/02/23 05:43:04;;;;;;;3.78;1.67;;;4.60;99.90;;;;;;4432114;32;20170;-62
2023/02/23 05:45:29;;;;;;;0.98;0.85;;;4.60;99.90;;;;;;4432738;32;20124;-63
2023/02/23 05:47:55;;;;;;;0.98;0.95;;;4.50;99.90;;;;;;4436090;32;20081;-62
2023/02/23 05:50:20;;;;;;;1.35;1.25;;;4.40;99.90;;;;;;4432089;32;20111;-63
2023/02/23 05:52:46;;;;;;;2.28;2.08;;;4.40;99.90;;;;;;4431603;32;20101;-63
2023/02/23 05:55:11;;;;;;;3.55;1.50;;;4.40;99.90;;;;;;4431514;32;20120;-63
2023/02/23 05:57:38;;;;;;;1.65;1.23;;;4.40;99.90;;;;;;4430276;32;20445;-64
2023/02/23 06:00:05;;;;;;;8.32;1.27;;;4.30;99.90;;;;;;4434309;32;20560;-63
2023/02/23 06:02:31;;;;;;;1.05;1.05;;;4.30;99.90;;;;;;4414051;32;20073;-63
2023/02/23 06:04:56;;;;;;;6.37;2.35;;;4.30;99.90;;;;;;4412808;32;20140;-63
2023/02/23 06:07:22;;;;;;;1.00;1.00;;;4.30;99.90;;;;;;4429791;32;20091;-65
2023/02/23 06:09:47;;;;;;;1.42;1.33;;;4.30;99.90;;;;;;4431480;32;20056;-63
2023/02/23 06:12:13;;;;;;;2.45;1.90;;;4.30;99.90;;;;;;4426322;32;20090;-63
2023/02/23 06:14:38;;;;;;;3.53;1.95;;;4.20;99.90;;;;;;4428733;32;20123;-63
2023/02/23 06:17:04;;;;;;;0.62;0.62;;;4.20;99.90;;;;;;4420575;32;20224;-64
2023/02/23 06:19:30;;;;;;;1.35;1.25;;;4.20;99.90;;;;;;4425650;32;20675;-62
2023/02/23 06:21:56;;;;;;;2.03;1.62;;;4.20;99.90;;;;;;4417030;32;20073;-62
2023/02/23 06:24:22;;;;;;;1.55;1.45;;;4.30;99.90;;;;;;4432358;32;20584;-62
2023/02/23 06:26:48;;;;;;;1.85;0.93;;;4.20;99.90;;;;;;4415501;32;20524;-63
2023/02/23 06:29:14;;;;;;;2.08;1.60;;;4.10;99.90;;;;;;4425560;32;20137;-63
2023/02/23 06:31:40;;;;;;;2.33;1.55;;;4.10;99.90;;;;;;4398440;32;20487;-64
2023/02/23 06:34:06;;;;;;;1.65;1.55;;;4.10;99.90;;;;;;4405593;32;20089;-65
2023/02/23 06:36:31;;;;;;;3.58;1.42;;;4.20;99.90;;;;;;4419555;32;20085;-64
2023/02/23 06:38:58;;;;;;;1.75;1.52;;;4.20;99.90;;;;;;4404683;32;20173;-64
2023/02/23 06:41:24;;;;;;;0.80;0.80;;;4.30;99.90;;;;;;4405791;32;20160;-64
2023/02/23 06:43:50;;;;;;;11.57;2.95;;;4.40;99.90;;;;;;4401752;32;20081;-64
2023/02/23 06:46:16;;;;;;;2.87;1.95;;;4.40;99.90;;;;;;4409696;32;20077;-64
2023/02/23 06:48:42;;;;;;;2.15;1.75;;;4.50;99.90;;;;;;4406871;32;20155;-65
2023/02/23 06:51:08;;;;;;;1.42;1.33;;;4.50;99.90;;;;;;4418219;32;20108;-66
2023/02/23 06:53:34;;;;;;;2.22;1.27;;;4.50;99.90;;;;;;4404950;32;20235;-65
2023/02/23 06:56:00;;;;;;;2.95;1.35;;;4.50;99.90;;;;;;4376239;32;20089;-65
2023/02/23 06:58:27;;;;;;;4.28;2.28;;;4.40;99.90;;;;;;4379474;32;20216;-66
2023/02/23 07:00:55;;;;;;;7.55;2.37;;;4.60;99.90;;;;;;4383457;32;20972;-66
2023/02/23 07:03:22;;;;;;;10.18;3.50;;;4.50;99.90;;;;;;4359478;32;20979;-64
2023/02/23 07:05:49;;;;;;;4.68;2.28;;;4.50;99.90;;;;;;4376508;32;20521;-65
2023/02/23 07:08:15;;;;;;;0.90;0.90;;;4.50;99.90;;;;;;4389627;32;20824;-64
2023/02/23 07:10:40;;;;;;;12.37;2.33;;;4.60;99.90;;;;;;4375732;32;20100;-66
2023/02/23 07:13:06;;;;;;;0.70;0.70;;;4.60;99.90;;;;;;4391318;32;20510;-65
2023/02/23 07:15:31;;;;;;;0.60;0.60;;;4.60;99.90;;;;;;4386805;32;20097;-64
2023/02/23 07:17:57;;;;;;;2.45;1.40;;;4.70;99.90;;;;;;4391896;32;20103;-64
2023/02/23 07:20:22;;;;;;;1.37;1.27;;;4.70;99.90;;;;;;4387309;32;20670;-64
2023/02/23 07:22:48;;;;;;;1.75;1.58;;;4.60;99.90;;;;;;4362810;32;21682;-64
2023/02/23 07:25:13;;;;;;;4.85;1.83;;;4.60;99.90;;;;;;4375625;32;20100;-64
2023/02/23 07:27:41;;;;;;;1.40;1.30;;;4.60;99.90;;;;;;4366268;32;20096;-64
2023/02/23 07:30:07;;;;;;;1.83;1.45;;;4.60;99.90;;;;;;4380208;32;20077;-64
2023/02/23 07:32:33;;;;;;;3.58;2.15;;;4.80;99.90;;;;;;4380481;32;20789;-66
2023/02/23 07:34:58;;;;;;;2.53;1.90;;;4.80;99.90;;;;;;4379920;32;20093;-66
2023/02/23 07:37:23;;;;;;;3.00;1.83;;;4.80;99.90;;;;;;4369516;32;20144;-65
2023/02/23 07:39:49;;;;;;;1.25;1.15;;;4.90;99.90;;;;;;4389209;32;20101;-64
2023/02/23 07:42:14;;;;;;;0.82;0.82;;;4.90;99.90;;;;;;4377278;32;20900;-65
2023/02/23 07:44:40;;;;;;;0.60;0.60;;;4.90;99.90;;;;;;4373832;32;20110;-63
2023/02/23 07:47:06;;;;;;;2.25;1.35;;;4.90;99.90;;;;;;4379913;32;20600;-65
2023/02/23 07:49:32;;;;;;;6.18;1.02;;;4.90;99.90;;;;;;4390921;32;20081;-65
2023/02/23 07:51:58;;;;;;;13.48;2.30;;;4.80;99.90;;;;;;4390239;32;20120;-64
2023/02/23 07:54:24;;;;;;;3.28;1.95;;;4.90;99.90;;;;;;4385856;32;20304;-65
2023/02/23 07:56:51;;;;;;;0.80;0.80;;;4.90;99.90;;;;;;4355632;32;20196;-65
2023/02/23 07:59:16;;;;;;;1.00;0.95;;;5.00;99.90;;;;;;4387158;32;20662;-65
2023/02/23 08:01:42;;;;;;;4.65;2.12;;;5.00;99.90;;;;;;4387883;32;20082;-65
2023/02/23 08:04:07;;;;;;;3.00;2.33;;;5.10;99.90;;;;;;4367463;32;20321;-64
2023/02/23 08:06:33;;;;;;;2.33;1.48;;;5.10;99.90;;;;;;4397883;32;20520;-64
2023/02/23 08:09:00;;;;;;;1.73;1.20;;;5.20;99.90;;;;;;4379726;32;20211;-63
2023/02/23 08:11:27;;;;;;;2.15;1.37;;;5.30;99.90;;;;;;4359423;32;20106;-64
2023/02/23 08:13:58;;;;;;;0.82;0.82;;;5.30;99.90;;;;;;4379807;32;20620;-64
2023/02/23 08:16:26;;;;;;;6.32;1.33;;;5.20;99.90;;;;;;4365056;32;20450;-64
2023/02/23 08:18:51;;;;;;;0.75;0.75;;;5.20;99.90;;;;;;4384289;32;20703;-64
2023/02/23 08:21:17;;;;;;;0.98;0.98;;;5.30;99.90;;;;;;4378166;32;20100;-65
2023/02/23 08:23:43;;;;;;;1.77;1.33;;;5.20;99.90;;;;;;4385709;32;20537;-63
2023/02/23 08:26:09;;;;;;;1.45;1.35;;;5.30;99.90;;;;;;4389074;32;20600;-64
2023/02/23 08:28:35;;;;;;;2.62;1.12;;;5.40;99.90;;;;;;4385076;32;20101;-64
2023/02/23 08:31:00;;;;;;;2.00;1.65;;;5.60;99.90;;;;;;4377329;32;20337;-64
2023/02/23 08:33:26;;;;;;;6.82;1.92;;;5.50;99.90;;;;;;4370872;32;20179;-64
2023/02/23 08:35:52;;;;;;;4.20;2.10;;;5.50;99.90;;;;;;4383516;32;20109;-65
2023/02/23 08:38:17;;;;;;;1.35;1.25;;;5.50;99.90;;;;;;4396249;32;20280;-64
2023/02/23 08:40:43;;;;;;;1.55;1.45;;;5.50;99.90;;;;;;4405588;32;20171;-66
2023/02/23 08:43:09;;;;;;;1.30;1.20;;;5.40;99.90;;;;;;4404703;32;20374;-64
2023/02/23 08:45:34;;;;;;;2.15;1.95;;;5.20;99.90;;;;;;4406629;32;20734;-65
2023/02/23 08:47:59;;;;;;;1.80;1.40;;;5.20;99.90;;;;;;4402997;32;20924;-66
2023/02/23 08:50:25;;;;;;;3.10;2.10;;;5.40;99.90;;;;;;4403676;32;20576;-65
2023/02/23 08:52:50;;;;;;;1.75;1.62;;;5.50;99.90;;;;;;4397036;32;20218;-65
2023/02/23 08:55:17;;;;;;;2.17;1.30;;;5.50;99.90;;;;;;4381012;32;20102;-65
2023/02/23 08:57:43;;;;;;;7.75;0.98;;;5.60;99.90;;;;;;4388040;32;20814;-65
2023/02/23 09:00:16;;;;;;;1.75;1.40;;;5.60;99.90;;;;;;4390939;32;20097;-65
2023/02/23 09:02:44;;;;;;;2.58;1.77;;;5.50;99.90;;;;;;4386497;32;20241;-65
2023/02/23 09:05:10;;;;;;;1.02;1.00;;;5.60;99.90;;;;;;4386945;32;21052;-68
2023/02/23 09:07:37;;;;;;;1.40;1.25;;;5.70;99.90;;;;;;4409900;32;20089;-65
2023/02/23 09:10:03;;;;;;;6.95;2.40;;;5.60;99.90;;;;;;4406029;32;20088;-67
2023/02/23 09:12:28;;;;;;;2.25;2.05;;;5.70;99.90;;;;;;4396242;32;20105;-66
2023/02/23 09:14:54;;;;;;;2.40;1.27;;;5.70;99.90;;;;;;4390319;32;20254;-66
2023/02/23 09:17:21;;;;;;;6.60;1.90;;;5.70;99.90;;;;;;4396318;32;20225;-66
2023/02/23 09:19:47;;;;;;;1.60;1.27;;;5.70;99.90;;;;;;4389073;32;20100;-66
2023/02/23 09:22:13;;;;;;;7.78;1.80;;;5.80;99.90;;;;;;4397051;32;20076;-66
2023/02/23 09:24:38;;;;;;;1.35;1.25;;;5.80;99.90;;;;;;4407435;32;20113;-66
2023/02/23 09:27:06;;;;;;;7.20;3.17;;;5.90;99.90;;;;;;4388401;32;20314;-66
2023/02/23 09:29:32;;;;;;;1.48;1.37;;;6.00;99.90;;;;;;4392838;32;20073;-65
2023/02/23 09:31:58;;;;;;;2.40;1.75;;;6.00;99.90;;;;;;4375196;32;20097;-65
2023/02/23 09:34:24;;;;;;;3.58;1.75;;;6.10;99.90;;;;;;4398264;32;20196;-65
2023/02/23 09:36:51;;;;;;;1.95;1.52;;;6.20;99.90;;;;;;4381744;32;20586;-64
2023/02/23 09:39:16;;;;;;;5.25;2.10;;;6.40;99.90;;;;;;4396025;32;20794;-66
2023/02/23 09:41:50;;;;;;;3.15;1.87;;;6.40;99.90;;;;;;4402394;32;20089;-64
2023/02/23 09:44:39;;;;;;;3.42;1.77;;;6.50;99.90;;;;;;4379918;32;20447;-67
2023/02/23 09:47:31;;;;;;;2.40;1.50;;;6.80;99.90;;;;;;4369335;32;20077;-67
2023/02/23 09:50:01;;;;;;;3.87;2.17;;;6.90;99.90;;;;;;4363332;32;20100;-67
2023/02/23 09:52:36;;;;;;;0.70;0.70;;;7.10;99.90;;;;;;4382946;32;20097;-65
2023/02/23 09:55:02;;;;;;;1.40;1.30;;;7.10;99.90;;;;;;4393649;32;20844;-67
2023/02/23 09:57:38;;;;;;;10.27;1.65;;;7.30;99.90;;;;;;4380129;32;20350;-64
2023/02/23 10:00:21;;;;;;;1.33;1.23;;;7.60;99.90;;;;;;4364656;32;20318;-66
2023/02/23 10:03:07;;;;;;;1.52;1.27;;;7.80;99.90;;;;;;4374427;32;20085;-67
2023/02/23 10:05:42;;;;;;;0.98;0.93;;;8.00;99.90;;;;;;4372948;32;20478;-66
2023/02/23 10:08:35;;;;;;;1.80;1.20;;;8.00;99.90;;;;;;4373079;32;20809;-64
2023/02/23 10:11:10;;;;;;;2.15;1.73;;;8.20;99.90;;;;;;4350666;32;21081;-65
2023/02/23 10:13:50;;;;;;;1.00;1.00;;;8.40;99.90;;;;;;4355923;32;20886;-66
2023/02/23 10:16:22;;;;;;;8.77;4.05;;;8.60;99.90;;;;;;4380375;32;20096;-67
2023/02/23 10:19:13;;;;;;;1.85;1.65;;;8.80;99.90;;;;;;4383220;32;20127;-67
2023/02/23 10:21:41;;;;;;;2.62;1.92;;;9.00;99.90;;;;;;4368056;32;20902;-66
2023/02/23 10:24:21;;;;;;;4.35;1.30;;;9.00;99.90;;;;;;4381156;32;20900;-65
2023/02/23 10:26:53;;;;;;;2.87;1.58;;;8.90;99.90;;;;;;4392769;32;20568;-67
2023/02/23 10:29:26;;;;;;;5.72;1.70;;;9.00;99.90;;;;;;4382511;32;20226;-65
2023/02/23 10:31:56;;;;;;;2.15;1.25;;;9.10;99.90;;;;;;4382642;32;20807;-65
2023/02/23 10:34:23;;;;;;;4.12;1.37;;;9.40;99.90;;;;;;4377464;32;20093;-66
2023/02/23 10:36:57;;;;;;;4.65;2.17;;;9.50;99.90;;;;;;4389301;32;20914;-65
2023/02/23 10:39:23;;;;;;;10.38;1.77;;;9.50;99.90;;;;;;4381752;32;20181;-65
2023/02/23 10:41:51;;;;;;;1.95;1.00;;;9.60;99.90;;;;;;4387710;32;20093;-64
2023/02/23 10:44:21;;;;;;;1.98;1.73;;;9.70;99.90;;;;;;4388939;32;20180;-67
2023/02/23 10:46:56;;;;;;;9.50;0.80;;;9.70;99.90;;;;;;4394017;32;21065;-66
2023/02/23 10:49:31;;;;;;;1.15;1.02;;;9.80;99.90;;;;;;4392191;32;20177;-65
2023/02/23 10:52:01;;;;;;;2.22;1.23;;;9.80;99.90;;;;;;4389250;32;20112;-65
2023/02/23 10:54:41;;;;;;;1.95;1.35;;;9.90;99.90;;;;;;4396099;32;20238;-65
2023/02/23 10:57:08;;;;;;;5.68;2.60;;;10.00;99.90;;;;;;4388389;32;20085;-62
2023/02/23 10:59:33;;;;;;;2.55;1.75;;;10.10;99.90;;;;;;4398180;32;20088;-67
2023/02/23 11:02:15;;;;;;;4.55;2.10;;;10.20;99.90;;;;;;4393588;32;21680;-65
2023/02/23 11:04:51;;;;;;;0.85;0.85;;;10.20;99.90;;;;;;4378842;32;20135;-63
2023/02/23 11:07:22;;;;;;;1.45;1.33;;;10.30;99.90;;;;;;4385378;32;20081;-64
2023/02/23 11:09:50;;;;;;;2.12;1.73;;;10.20;99.90;;;;;;4386504;32;20113;-64
2023/02/23 11:12:20;;;;;;;6.32;1.58;;;10.30;99.90;;;;;;4405435;32;20096;-65
2023/02/23 11:14:49;;;;;;;2.60;1.27;;;10.50;99.90;;;;;;4374999;32;20097;-64
2023/02/23 11:17:27;;;;;;;1.52;0.75;;;10.50;99.90;;;;;;4367577;32;21146;-66
2023/02/23 11:19:58;;;;;;;4.55;2.75;;;10.60;99.90;;;;;;4392904;32;20686;-63
2023/02/23 11:22:25;;;;;;;;;;;10.70;99.90;;;;;;4402129;32;20204;-65
2023/02/23 11:24:52;;;;;;;18.52;1.60;;;10.60;99.90;;;;;;4406064;32;20117;-65
2023/02/23 11:27:22;;;;;;;4.30;1.75;;;10.60;99.90;;;;;;4413454;32;20069;-66
2023/02/23 11:29:51;;;;;;;1.95;1.37;;;10.80;99.90;;;;;;4409793;32;20113;-66
2023/02/23 11:32:20;;;;;;;3.08;1.20;;;10.90;99.90;;;;;;4403144;32;20078;-65
2023/02/23 11:34:48;;;;;;;4.40;1.20;;;10.90;99.90;;;;;;4388567;32;20089;-62
2023/02/23 11:37:19;;;;;;;1.33;1.20;;;11.00;99.90;;;;;;4408882;32;20144;-64
2023/02/23 11:39:56;;;;;;;7.15;0.93;;;11.00;99.90;;;;;;4405716;32;20084;-62
2023/02/23 11:42:25;;;;;;;0.93;0.93;;;11.10;99.90;;;;;;4403984;32;93663;-62
2023/02/23 11:45:02;;;;;;;3.50;1.35;;;11.20;99.90;;;;;;4397352;32;20235;-65
2023/02/23 11:47:30;;;;;;;3.12;1.10;;;11.30;99.90;;;;;;4410225;32;20093;-63
2023/02/23 11:49:56;;;;;;;14.80;3.85;;;11.10;99.90;;;;;;4412394;32;20301;-65
2023/02/23 11:52:24;;;;;;;6.40;0.98;;;11.10;99.90;;;;;;4389861;32;20183;-65
2023/02/23 11:54:56;;;;;;;1.33;1.05;;;11.10;99.90;;;;;;4384127;32;20663;-65
2023/02/23 11:57:25;;;;;;;2.35;1.30;;;11.20;99.90;;;;;;4384160;32;20435;-66
2023/02/23 11:59:51;;;;;;;1.92;1.15;;;11.20;99.90;;;;;;4378148;32;20145;-66
2023/02/23 12:02:23;;;;;;;4.03;1.70;;;11.40;99.90;;;;;;4408776;32;20101;-65
2023/02/23 12:05:03;;;;;;;4.45;1.77;;;11.50;99.90;;;;;;4387010;32;20109;-66
2023/02/23 12:07:43;;;;;;;1.83;1.45;;;11.50;99.90;;;;;;4386178;32;20182;-66
2023/02/23 12:10:14;;;;;;;2.53;1.35;;;11.70;99.90;;;;;;4404838;32;20213;-63
2023/02/23 12:13:14;;;;;;;3.67;1.15;;;11.70;99.90;;;;;;4409340;32;20171;-65
2023/02/23 12:15:47;;;;;;;2.70;1.23;;;11.70;99.90;;;;;;4379409;32;20888;-65
2023/02/23 12:18:39;;;;;;;4.80;2.47;;;11.70;99.90;;;;;;4400715;32;20326;-65
2023/02/23 12:21:35;;;;;;;11.12;1.85;;;11.60;99.90;;;;;;4384242;32;21640;-65
2023/02/23 12:24:14;;;;;;;1.20;1.10;;;11.60;99.90;;;;;;4394195;32;20159;-66
2023/02/23 12:27:11;;;;;;;1.02;0.93;;;11.60;99.90;;;;;;4407654;32;20204;-63
2023/02/23 12:30:01;;;;;;;0.65;0.65;;;11.80;99.90;;;;;;4396138;32;20191;-65
2023/02/23 12:32:44;;;;;;;6.87;1.93;;;11.70;99.90;;;;;;4386229;32;20084;-66
2023/02/23 12:35:16;;;;;;;2.78;1.75;;;11.70;99.90;;;;;;4403533;32;20089;-66
2023/02/23 12:38:07;;;;;;;2.25;2.03;;;11.80;99.90;;;;;;4396925;32;20069;-66
2023/02/23 12:40:37;;;;;;;1.95;1.35;;;11.80;99.90;;;;;;4386008;32;20686;-65
2023/02/23 12:43:14;;;;;;;4.90;2.97;;;11.70;99.90;;;;;;4373648;32;20409;-66
2023/02/23 12:46:10;;;;;;;7.72;2.37;;;11.70;99.90;;;;;;4373831;32;21287;-66
2023/02/23 12:49:12;;;;;;;9.15;1.58;;;11.80;99.90;;;;;;4392512;32;20835;-66
2023/02/23 12:51:43;;;;;;;1.50;1.40;;;11.90;99.90;;;;;;4391804;32;20093;-64
2023/02/23 12:54:11;;;;;;;2.65;1.62;;;11.80;99.90;;;;;;4403049;32;20085;-65
2023/02/23 12:57:18;;;;;;;1.37;1.00;;;11.70;99.90;;;;;;4400783;32;20642;-63
2023/02/23 13:00:09;;;;;;;1.58;1.48;;;11.70;99.90;;;;;;4395617;32;20196;-65
2023/02/23 13:03:08;;;;;;;3.53;2.10;;;11.70;99.90;;;;;;4398511;32;20080;-66
2023/02/23 13:05:40;;;;;;;3.75;1.87;;;11.70;99.90;;;;;;4402022;32;20601;-64
2023/02/23 13:08:30;;;;;;;0.85;0.85;;;11.70;99.90;;;;;;4411689;32;20592;-65
2023/02/23 13:11:06;;;;;;;17.70;1.93;;;11.80;99.90;;;;;;4416405;32;20745;-66
2023/02/23 13:13:44;;;;;;;4.35;2.15;;;11.80;99.90;;;;;;4409342;32;20166;-63
2023/02/23 13:16:18;;;;;;;4.12;2.08;;;11.90;99.90;;;;;;4417865;32;20069;-63
2023/02/23 13:18:51;;;;;;;1.27;1.10;;;12.00;99.90;;;;;;4409476;32;21220;-66
2023/02/23 13:21:29;;;;;;;1.62;1.40;;;11.90;99.90;;;;;;4410349;32;20686;-65
2023/02/23 13:24:06;;;;;;;6.30;2.03;;;11.80;99.90;;;;;;4410909;32;20187;-65
2023/02/23 13:26:38;;;;;;;1.90;1.30;;;11.80;99.90;;;;;;4410921;32;20065;-64
2023/02/23 13:29:16;;;;;;;14.95;1.23;;;11.80;99.90;;;;;;4415868;32;20524;-62
2023/02/23 13:31:43;;;;;;;4.22;1.50;;;11.70;99.90;;;;;;4400263;32;20109;-66
2023/02/23 13:34:24;;;;;;;2.67;2.45;;;11.60;99.90;;;;;;4407269;32;20146;-66
2023/02/23 13:36:50;;;;;;;;;;;11.60;99.90;;;;;;4418302;32;20088;-64
2023/02/23 13:39:44;;;;;;;3.55;1.20;;;11.60;99.90;;;;;;4417163;32;20062;-67
2023/02/23 13:42:20;;;;;;;2.12;1.25;;;11.60;99.90;;;;;;4406542;32;20100;-67
2023/02/23 13:45:02;;;;;;;1.60;1.50;;;11.40;99.90;;;;;;4413562;32;20073;-63
2023/02/23 13:47:33;;;;;;;2.20;1.30;;;11.40;99.90;;;;;;4415047;32;20615;-65
2023/02/23 13:50:14;;;;;;;2.10;1.73;;;11.40;99.90;;;;;;4420219;32;20093;-63
2023/02/23 13:52:43;;;;;;;2.92;1.30;;;11.30;99.90;;;;;;4412355;32;21932;-63
2023/02/23 13:55:30;;;;;;;1.45;1.15;;;11.10;99.90;;;;;;4416097;32;20093;-63
2023/02/23 13:58:05;;;;;;;7.53;1.75;;;11.10;99.90;;;;;;4406544;32;20458;-65
2023/02/23 14:00:33;;;;;;;1.15;0.90;;;11.10;99.90;;;;;;4403339;32;20470;-64
2023/02/23 14:03:04;;;;;;;21.35;1.25;;;11.10;99.90;;;;;;4408335;32;20085;-63
2023/02/23 14:05:30;;;;;;;13.82;1.45;;;11.10;99.90;;;;;;4423020;32;20505;-63
2023/02/23 14:08:01;;;;;;;14.05;2.03;;;11.10;99.90;;;;;;4418260;32;20216;-62
2023/02/23 14:10:35;;;;;;;1.55;1.37;;;11.00;99.90;;;;;;4423532;32;20147;-64
2023/02/23 14:13:08;;;;;;;0.90;0.90;;;11.00;99.90;;;;;;4403393;32;20681;-65
2023/02/23 14:15:37;;;;;;;1.15;1.10;;;11.00;99.90;;;;;;4419794;32;20193;-65
2023/02/23 14:18:21;;;;;;;3.80;1.30;;;11.00;99.90;;;;;;4418036;32;20553;-65
2023/02/23 14:21:16;;;;;;;2.00;1.58;;;10.90;99.90;;;;;;4420465;32;20089;-62
2023/02/23 14:23:52;;;;;;;2.70;1.73;;;10.80;99.90;;;;;;4413372;32;20085;-64
2023/02/23 14:26:41;;;;;;;0.75;0.75;;;10.90;99.90;;;;;;4421002;32;20086;-62
2023/02/23 14:29:25;;;;;;;1.60;1.23;;;10.80;99.90;;;;;;4410779;32;20667;-62